Samburg, Tennessee
Current Conditions -  °F | °C
As of 7:35 PM on Friday 31 Oct 2014 (Local Time) from KUCY Reporting Station
Clear Clear  
Wind Chill: 34°   Ceiling: Unl
Heat Index: 39°   Visibility: 10mi
Dew Point: 23°   Wind: 8mph
Humidity: 52%   Direction: 340°NNW
Pressure: 30.27"   Gusts: NA
Location:  36.38°N, 89.35°W
Report Text: KUCY 010035Z AUTO 34007KT 10SM CLR 04/M05 A3027 RMK
Loading
Personal Weather Stations






























Interactive Weather Map
Tropical Storm Tracking
New forecast layout! Learn more

10-Day Weather Forecast

Advertisements
Track Severe Weather on mobile